createdAt,value
2022-09-03T00:00:24.964Z,101320.81
2022-09-03T00:03:00.197Z,101322.28
2022-09-03T00:05:38.828Z,101316.88
2022-09-03T00:08:23.097Z,101319.09
2022-09-03T00:11:01.641Z,101315.66
2022-09-03T00:13:43.994Z,101314.34
2022-09-03T00:16:18.239Z,101317.88
2022-09-03T00:18:56.784Z,101316.56
2022-09-03T00:21:38.281Z,101317.75
2022-09-03T00:24:08.195Z,101314.84
2022-09-03T00:26:45.184Z,101318.13
2022-09-03T00:29:16.131Z,101312.72
2022-09-03T00:31:49.017Z,101313.03
2022-09-03T00:34:23.049Z,101301.97
2022-09-03T00:36:49.990Z,101301.75
2022-09-03T00:39:18.923Z,101305.88
2022-09-03T00:41:51.303Z,101310.25
2022-09-03T00:44:33.744Z,101302.25
2022-09-03T00:47:16.058Z,101300.41
2022-09-03T00:50:19.000Z,101309.66
2022-09-03T00:53:08.196Z,101300.19
2022-09-03T00:56:03.872Z,101298.59
2022-09-03T00:58:33.293Z,101301.09
2022-09-03T01:01:07.149Z,101307.31
2022-09-03T01:03:58.646Z,101304.91
2022-09-03T01:06:38.772Z,101306.00
2022-09-03T01:09:17.871Z,101303.97
2022-09-03T01:11:49.955Z,101302.06
2022-09-03T01:14:31.588Z,101301.25
2022-09-03T01:17:22.865Z,101293.22
2022-09-03T01:20:01.358Z,101300.34
2022-09-03T01:22:34.488Z,101299.81
2022-09-03T01:25:32.150Z,101310.63
2022-09-03T01:28:11.868Z,101308.19
2022-09-03T01:30:42.731Z,101311.19
2022-09-03T01:33:40.228Z,101314.97
2022-09-03T01:36:20.322Z,101321.47
2022-09-03T01:39:08.130Z,101320.75
2022-09-03T01:42:03.723Z,101311.84
2022-09-03T01:44:48.490Z,101308.34
2022-09-03T01:47:39.344Z,101309.16
2022-09-03T01:50:13.653Z,101314.56
2022-09-03T01:53:04.085Z,101311.34
2022-09-03T01:55:50.775Z,101311.34
2022-09-03T01:58:24.067Z,101319.25
2022-09-03T02:00:58.110Z,101317.31
2022-09-03T02:03:33.484Z,101317.84
2022-09-03T02:06:00.660Z,101320.03
2022-09-03T02:08:27.049Z,101312.22
2022-09-03T02:11:01.805Z,101312.22
2022-09-03T02:13:34.513Z,101309.28
2022-09-03T02:16:09.901Z,101309.28
2022-09-03T02:18:41.475Z,101307.44
2022-09-03T02:21:07.979Z,101304.22
2022-09-03T02:23:34.566Z,101304.03
2022-09-03T02:26:03.499Z,101301.09
2022-09-03T02:28:32.466Z,101303.59
2022-09-03T02:30:58.965Z,101308.75
2022-09-03T02:33:26.117Z,101304.75
2022-09-03T02:35:53.332Z,101306.94
2022-09-03T02:38:22.917Z,101299.19
2022-09-03T02:40:49.330Z,101299.25
2022-09-03T02:43:27.545Z,101302.75
2022-09-03T02:45:57.206Z,101298.75
2022-09-03T02:48:24.720Z,101301.75
2022-09-03T02:50:51.624Z,101302.59
2022-09-03T02:53:18.000Z,101305.59
2022-09-03T02:55:46.266Z,101303.19
2022-09-03T02:58:13.145Z,101299.44
2022-09-03T03:00:39.982Z,101302.44
2022-09-03T03:03:06.988Z,101298.72
2022-09-03T03:05:46.597Z,101301.66
2022-09-03T03:08:15.274Z,101299.28
2022-09-03T03:10:44.868Z,101294.44
2022-09-03T03:13:11.977Z,101296.91
2022-09-03T03:15:38.851Z,101298.31
2022-09-03T03:18:05.574Z,101295.31
2022-09-03T03:20:31.950Z,101291.00
2022-09-03T03:22:58.393Z,101291.31
2022-09-03T03:25:24.919Z,101289.38
2022-09-03T03:27:51.967Z,101282.38
2022-09-03T03:30:19.613Z,101277.59
2022-09-03T03:32:46.003Z,101280.28
2022-09-03T03:35:12.421Z,101287.56
2022-09-03T03:37:38.787Z,101279.25
2022-09-03T03:40:06.265Z,101284.94
2022-09-03T03:42:34.523Z,101285.19
2022-09-03T03:45:02.532Z,101286.59
2022-09-03T03:47:32.507Z,101288.75
2022-09-03T03:49:59.648Z,101290.38
2022-09-03T03:52:27.117Z,101289.06
2022-09-03T03:54:53.984Z,101286.63
2022-09-03T03:57:22.265Z,101287.44
2022-09-03T03:59:48.696Z,101296.06
2022-09-03T04:02:16.616Z,101293.63
2022-09-03T04:04:43.026Z,101289.34
2022-09-03T04:07:09.519Z,101294.47
2022-09-03T04:09:35.945Z,101288.75
2022-09-03T04:12:03.505Z,101287.97
2022-09-03T04:14:29.859Z,101290.91
2022-09-03T04:16:56.833Z,101287.16
2022-09-03T04:19:24.236Z,101294.47
2022-09-03T04:21:50.604Z,101296.34
2022-09-03T04:24:17.012Z,101289.63
2022-09-03T04:26:43.370Z,101283.16
2022-09-03T04:29:10.231Z,101287.72
2022-09-03T04:31:37.885Z,101293.13
2022-09-03T04:34:06.559Z,101287.19
2022-09-03T04:36:34.946Z,101285.31
2022-09-03T04:39:03.975Z,101292.31
2022-09-03T04:41:31.535Z,101281.81
2022-09-03T04:43:59.142Z,101286.69
2022-09-03T04:46:31.202Z,101282.38
2022-09-03T04:48:57.945Z,101283.16
2022-09-03T04:51:30.114Z,101282.09
2022-09-03T04:53:58.885Z,101278.56
2022-09-03T04:56:27.801Z,101285.84
2022-09-03T04:59:08.456Z,101288.56
2022-09-03T05:01:38.072Z,101293.94
2022-09-03T05:04:05.446Z,101295.03
2022-09-03T05:06:33.203Z,101284.50
2022-09-03T05:08:59.917Z,101294.50
2022-09-03T05:11:27.664Z,101291.50
2022-09-03T05:13:56.881Z,101299.59
2022-09-03T05:16:24.505Z,101299.34
2022-09-03T05:19:02.919Z,101308.75
2022-09-03T05:21:30.648Z,101305.75
2022-09-03T05:23:57.193Z,101303.88
2022-09-03T05:26:27.043Z,101286.59
2022-09-03T05:28:58.964Z,101282.81
2022-09-03T05:31:28.224Z,101283.88
2022-09-03T05:34:00.386Z,101284.97
2022-09-03T05:36:29.917Z,101288.75
2022-09-03T05:38:57.851Z,101289.28
2022-09-03T05:41:26.506Z,101286.06
2022-09-03T05:43:58.726Z,101284.41
2022-09-03T05:46:32.578Z,101290.59
2022-09-03T05:49:01.192Z,101278.94
2022-09-03T05:51:28.583Z,101281.28
2022-09-03T05:53:55.564Z,101281.63
2022-09-03T05:56:24.671Z,101280.75
2022-09-03T05:58:53.425Z,101286.91
2022-09-03T06:01:25.124Z,101290.09
2022-09-03T06:03:58.811Z,101289.19
2022-09-03T06:06:27.090Z,101289.34
2022-09-03T06:09:02.523Z,101294.47
2022-09-03T06:11:29.820Z,101297.88
2022-09-03T06:13:57.513Z,101303.97
2022-09-03T06:16:31.502Z,101299.34
2022-09-03T06:19:01.577Z,101299.44
2022-09-03T06:21:31.144Z,101296.53
2022-09-03T06:23:59.669Z,101292.13
2022-09-03T06:26:28.475Z,101299.28
2022-09-03T06:28:56.202Z,101293.81
2022-09-03T06:31:23.590Z,101288.41
2022-09-03T06:33:49.998Z,101287.91
2022-09-03T06:36:19.356Z,101286.50
2022-09-03T06:38:47.180Z,101275.41
2022-09-03T06:41:21.315Z,101287.31
2022-09-03T06:43:49.165Z,101289.94
2022-09-03T06:46:18.033Z,101291.03
2022-09-03T06:48:45.546Z,101294.94
2022-09-03T06:51:15.514Z,101293.19
2022-09-03T06:53:47.146Z,101289.47
2022-09-03T06:56:16.884Z,101290.75
2022-09-03T06:58:48.649Z,101296.81
2022-09-03T07:01:19.164Z,101305.22
2022-09-03T07:03:48.155Z,101303.38
2022-09-03T07:06:19.115Z,101299.25
2022-09-03T07:08:46.761Z,101294.69
2022-09-03T07:11:22.593Z,101303.19
2022-09-03T07:13:51.815Z,101303.00
2022-09-03T07:16:23.726Z,101298.59
2022-09-03T07:18:52.325Z,101305.19
2022-09-03T07:21:23.732Z,101295.69
2022-09-03T07:23:51.923Z,101289.50
2022-09-03T07:26:21.464Z,101293.41
2022-09-03T07:28:49.098Z,101292.31
2022-09-03T07:31:25.882Z,101298.44
2022-09-03T07:33:59.632Z,101295.38
2022-09-03T07:36:28.327Z,101278.13
2022-09-03T07:38:57.197Z,101291.22
2022-09-03T07:41:28.769Z,101289.78
2022-09-03T07:43:55.653Z,101293.31
2022-09-03T07:46:24.643Z,101300.97
2022-09-03T07:48:56.014Z,101292.81
2022-09-03T07:51:26.568Z,101300.59
2022-09-03T07:53:56.024Z,101301.72
2022-09-03T07:56:22.684Z,101302.34
2022-09-03T07:58:49.251Z,101306.50
2022-09-03T08:01:19.511Z,101295.72
2022-09-03T08:03:48.197Z,101300.16
2022-09-03T08:06:16.503Z,101303.00
2022-09-03T08:08:45.118Z,101299.59
2022-09-03T08:11:17.507Z,101302.72
2022-09-03T08:13:44.991Z,101297.22
2022-09-03T08:16:13.768Z,101303.56
2022-09-03T08:18:40.485Z,101295.81
2022-09-03T08:21:14.792Z,101302.25
2022-09-03T08:23:43.459Z,101303.16
2022-09-03T08:26:10.224Z,101310.34
2022-09-03T08:28:37.565Z,101301.53
2022-09-03T08:31:18.820Z,101303.16
2022-09-03T08:33:47.738Z,101309.31
2022-09-03T08:36:17.025Z,101310.78
2022-09-03T08:38:45.464Z,101304.97
2022-09-03T08:41:30.046Z,101306.78
2022-09-03T08:44:40.176Z,101303.81
2022-09-03T08:47:34.060Z,101297.91
2022-09-03T08:50:25.267Z,101302.44
2022-09-03T08:53:02.408Z,101308.94
2022-09-03T08:55:34.223Z,101300.25
2022-09-03T08:58:07.096Z,101298.84
2022-09-03T09:01:13.608Z,101301.25
2022-09-03T09:03:49.060Z,101300.84
2022-09-03T09:06:33.795Z,101301.44
2022-09-03T09:09:15.145Z,101298.00
2022-09-03T09:11:48.727Z,101300.81
2022-09-03T09:14:19.371Z,101298.88
2022-09-03T09:17:07.116Z,101296.69
2022-09-03T09:19:52.174Z,101289.34
2022-09-03T09:22:38.303Z,101294.91
2022-09-03T09:25:14.306Z,101301.94
2022-09-03T09:28:04.894Z,101294.63
2022-09-03T09:30:32.873Z,101295.81
2022-09-03T09:33:00.514Z,101300.34
2022-09-03T09:35:27.373Z,101294.63
2022-09-03T09:37:56.342Z,101296.09
2022-09-03T09:40:35.354Z,101298.22
2022-09-03T09:43:15.132Z,101287.59
2022-09-03T09:45:44.507Z,101295.25
2022-09-03T09:48:31.327Z,101297.19
2022-09-03T09:51:11.488Z,101291.84
2022-09-03T09:53:39.374Z,101291.88
2022-09-03T09:56:06.565Z,101286.63
2022-09-03T09:58:34.685Z,101287.88
2022-09-03T10:01:14.876Z,101292.50
2022-09-03T10:03:59.097Z,101290.00
2022-09-03T10:06:46.325Z,101285.19
2022-09-03T10:09:18.663Z,101285.06
2022-09-03T10:11:51.225Z,101282.38
2022-09-03T10:14:31.051Z,101277.88
2022-09-03T10:17:07.464Z,101282.13
2022-09-03T10:20:06.406Z,101279.22
2022-09-03T10:22:48.360Z,101276.03
2022-09-03T10:25:30.410Z,101276.31
2022-09-03T10:27:59.947Z,101270.75
2022-09-03T10:30:26.512Z,101276.25
2022-09-03T10:33:10.468Z,101266.72
2022-09-03T10:35:46.269Z,101266.34
2022-09-03T10:38:29.920Z,101265.63
2022-09-03T10:41:26.900Z,101267.75
2022-09-03T10:44:35.319Z,101270.16
2022-09-03T10:47:11.494Z,101261.81
2022-09-03T10:50:15.968Z,101262.72
2022-09-03T10:53:20.930Z,101266.03
2022-09-03T10:56:13.475Z,101263.97
2022-09-03T10:59:01.460Z,101259.28
2022-09-03T11:01:59.024Z,101264.50
2022-09-03T11:04:49.268Z,101259.75
2022-09-03T11:07:21.278Z,101258.16
2022-09-03T11:10:03.940Z,101267.63
2022-09-03T11:12:37.381Z,101258.63
2022-09-03T11:15:15.832Z,101259.44
2022-09-03T11:17:49.828Z,101256.22
2022-09-03T11:20:22.323Z,101257.03
2022-09-03T11:22:53.803Z,101250.75
2022-09-03T11:25:25.894Z,101255.47
2022-09-03T11:28:19.227Z,101244.03
2022-09-03T11:31:17.688Z,101245.63
2022-09-03T11:33:49.475Z,101255.13
2022-09-03T11:36:28.041Z,101251.97
2022-09-03T11:38:54.439Z,101252.38
2022-09-03T11:41:27.122Z,101245.66
2022-09-03T11:44:01.179Z,101241.31
2022-09-03T11:46:30.736Z,101237.72
2022-09-03T11:49:11.679Z,101236.97
2022-09-03T11:51:41.801Z,101236.97
2022-09-03T11:54:14.362Z,101234.56
2022-09-03T11:56:42.288Z,101224.19
2022-09-03T11:59:17.539Z,101227.31
2022-09-03T12:02:11.463Z,101225.13
2022-09-03T12:04:50.845Z,101223.94
2022-09-03T12:07:51.328Z,101230.28
2022-09-03T12:10:35.331Z,101235.75
2022-09-03T12:13:26.226Z,101236.91
2022-09-03T12:16:31.505Z,101234.97
2022-09-03T12:19:06.384Z,101240.09
2022-09-03T12:21:40.946Z,101244.06
2022-09-03T12:24:12.329Z,101240.00
2022-09-03T12:26:41.801Z,101232.44
2022-09-03T12:29:22.376Z,101240.19
2022-09-03T12:31:56.344Z,101236.69
2022-09-03T12:34:25.636Z,101229.31
2022-09-03T12:36:54.439Z,101227.13
2022-09-03T12:42:20.532Z,101232.97
2022-09-03T12:44:46.917Z,101238.00
2022-09-03T12:47:35.636Z,101237.97
2022-09-03T12:50:13.515Z,101243.88
2022-09-03T12:52:46.924Z,101230.03
2022-09-03T12:55:50.881Z,101222.63
2022-09-03T12:58:24.203Z,101231.63
2022-09-03T13:01:09.693Z,101230.06
2022-09-03T13:03:57.668Z,101232.59
2022-09-03T13:06:28.365Z,101227.84
2022-09-03T13:09:01.555Z,101229.47
2022-09-03T13:11:29.625Z,101217.75
2022-09-03T13:14:10.025Z,101222.97
2022-09-03T13:16:45.845Z,101225.41
2022-09-03T13:19:30.929Z,101227.31
2022-09-03T13:22:30.814Z,101228.25
2022-09-03T13:25:09.258Z,101221.00
2022-09-03T13:27:42.166Z,101231.47
2022-09-03T13:30:19.594Z,101227.94
2022-09-03T13:33:11.806Z,101230.84
2022-09-03T13:36:00.471Z,101229.66
2022-09-03T13:38:44.863Z,101216.63
2022-09-03T13:41:36.660Z,101215.84
2022-09-03T13:44:29.696Z,101212.34
2022-09-03T13:47:01.394Z,101221.66
2022-09-03T13:50:22.874Z,101211.09
2022-09-03T13:52:59.610Z,101226.47
2022-09-03T13:55:37.833Z,101214.19
2022-09-03T13:58:22.993Z,101218.84
2022-09-03T14:00:54.691Z,101206.84
2022-09-03T14:03:49.289Z,101223.28
2022-09-03T14:06:33.988Z,101213.56
2022-09-03T14:09:33.969Z,101201.53
2022-09-03T14:12:29.299Z,101215.91
2022-09-03T14:15:08.818Z,101211.53
2022-09-03T14:18:09.139Z,101211.44
2022-09-03T14:20:48.056Z,101213.34
2022-09-03T14:23:32.907Z,101204.38
2022-09-03T14:26:02.715Z,101212.00
2022-09-03T14:28:36.479Z,101214.56
2022-09-03T14:31:15.444Z,101206.00
2022-09-03T14:34:02.456Z,101215.44
2022-09-03T14:36:41.797Z,101212.97
2022-09-03T14:39:32.720Z,101210.78
2022-09-03T14:41:59.132Z,101216.66
2022-09-03T14:44:42.772Z,101210.03
2022-09-03T14:47:12.661Z,101212.72
2022-09-03T14:49:53.500Z,101218.06
2022-09-03T14:52:28.582Z,101207.78
2022-09-03T14:55:40.204Z,101210.56
2022-09-03T14:58:31.187Z,101215.84
2022-09-03T15:01:06.437Z,101210.25
2022-09-03T15:03:57.132Z,101210.72
2022-09-03T15:06:36.675Z,101209.81
2022-09-03T15:09:25.938Z,101210.09
2022-09-03T15:12:10.336Z,101211.75
2022-09-03T15:14:49.672Z,101216.44
2022-09-03T15:17:22.053Z,101211.06
2022-09-03T15:19:57.974Z,101206.13
2022-09-03T15:22:33.564Z,101208.91
2022-09-03T15:25:33.695Z,101215.22
2022-09-03T15:28:11.749Z,101216.19
2022-09-03T15:30:49.216Z,101208.47
2022-09-03T15:33:29.066Z,101217.81
2022-09-03T15:36:19.569Z,101217.19
2022-09-03T15:38:58.080Z,101226.78
2022-09-03T15:41:56.979Z,101222.59
2022-09-03T15:44:26.835Z,101228.38
2022-09-03T15:47:05.227Z,101223.06
2022-09-03T15:49:52.973Z,101218.50
2022-09-03T15:53:10.715Z,101224.50
2022-09-03T15:55:41.990Z,101228.13
2022-09-03T15:58:37.796Z,101221.03
2022-09-03T16:01:26.898Z,101224.13
2022-09-03T16:03:55.931Z,101225.34
2022-09-03T16:06:38.043Z,101224.06
2022-09-03T16:10:02.044Z,101226.59
2022-09-03T16:12:52.550Z,101224.28
2022-09-03T16:15:28.099Z,101222.34
2022-09-03T16:18:07.728Z,101225.53
2022-09-03T16:20:40.920Z,101217.22
2022-09-03T16:23:15.705Z,101224.34
2022-09-03T16:26:00.740Z,101216.81
2022-09-03T16:28:41.771Z,101224.63
2022-09-03T16:31:36.233Z,101222.66
2022-09-03T16:34:59.130Z,101230.16
2022-09-03T16:38:03.089Z,101229.31
2022-09-03T16:40:46.077Z,101228.97
2022-09-03T16:43:38.848Z,101220.69
2022-09-03T16:46:22.239Z,101225.38
2022-09-03T16:48:54.629Z,101219.88
2022-09-03T16:51:39.352Z,101229.66
2022-09-03T16:54:39.245Z,101228.41
2022-09-03T16:57:36.436Z,101232.75
2022-09-03T17:00:12.568Z,101221.31
2022-09-03T17:03:06.077Z,101224.09
2022-09-03T17:05:49.017Z,101220.50
2022-09-03T17:08:18.420Z,101219.94
2022-09-03T17:11:03.042Z,101219.91
2022-09-03T17:13:33.070Z,101221.91
2022-09-03T17:16:27.461Z,101228.59
2022-09-03T17:19:16.668Z,101235.59
2022-09-03T17:21:50.957Z,101236.34
2022-09-03T17:24:52.560Z,101238.72
2022-09-03T17:27:33.931Z,101232.31
2022-09-03T17:30:40.556Z,101230.69
2022-09-03T17:33:42.749Z,101231.41
2022-09-03T17:36:15.384Z,101239.09
2022-09-03T17:38:44.432Z,101237.41
2022-09-03T17:41:35.761Z,101240.44
2022-09-03T17:44:16.529Z,101248.97
2022-09-03T17:46:54.260Z,101250.03
2022-09-03T17:49:27.456Z,101254.97
2022-09-03T17:52:06.555Z,101263.34
2022-09-03T17:54:41.700Z,101267.81
2022-09-03T17:57:20.430Z,101269.47
2022-09-03T18:00:05.685Z,101269.22
2022-09-03T18:02:32.057Z,101273.69
2022-09-03T18:05:10.573Z,101276.50
2022-09-03T18:08:03.466Z,101283.19
2022-09-03T18:10:41.982Z,101282.44
2022-09-03T18:13:11.262Z,101289.19
2022-09-03T18:15:52.547Z,101285.72
2022-09-03T18:18:29.232Z,101295.78
2022-09-03T18:21:25.406Z,101298.16
2022-09-03T18:24:23.030Z,101303.50
2022-09-03T18:27:16.277Z,101310.03
2022-09-03T18:30:34.480Z,101309.06
2022-09-03T18:33:19.480Z,101320.47
2022-09-03T18:36:05.595Z,101322.91
2022-09-03T18:38:56.483Z,101328.91
2022-09-03T18:41:50.894Z,101323.44
2022-09-03T18:44:44.936Z,101324.66
2022-09-03T18:48:01.524Z,101325.38
2022-09-03T18:51:01.956Z,101325.56
2022-09-03T18:54:16.648Z,101326.94
2022-09-03T18:57:11.592Z,101345.66
2022-09-03T19:00:28.964Z,101345.06
2022-09-03T19:03:32.892Z,101345.75
2022-09-03T19:06:17.550Z,101351.22
2022-09-03T19:09:08.532Z,101353.91
2022-09-03T19:12:06.465Z,101356.13
2022-09-03T19:15:12.079Z,101369.28
2022-09-03T19:18:26.404Z,101371.97
2022-09-03T19:21:28.260Z,101373.38
2022-09-03T19:24:20.972Z,101375.03
2022-09-03T19:27:46.095Z,101378.28
2022-09-03T19:30:39.615Z,101373.38
2022-09-03T19:33:37.952Z,101375.03
2022-09-03T19:36:43.552Z,101370.75
2022-09-03T19:39:45.051Z,101373.06
2022-09-03T19:42:49.142Z,101376.31
2022-09-03T19:45:46.081Z,101384.13
2022-09-03T19:48:44.176Z,101384.69
2022-09-03T19:51:50.840Z,101389.06
2022-09-03T19:54:41.311Z,101386.19
2022-09-03T19:57:30.315Z,101388.16
2022-09-03T20:00:17.182Z,101390.09
2022-09-03T20:03:16.049Z,101394.28
2022-09-03T20:06:01.750Z,101393.50
2022-09-03T20:08:48.072Z,101401.03
2022-09-03T20:11:20.199Z,101403.75
2022-09-03T20:14:05.210Z,101400.41
2022-09-03T20:16:41.160Z,101406.97
2022-09-03T20:19:34.776Z,101403.44
2022-09-03T20:22:21.228Z,101404.19
2022-09-03T20:25:26.689Z,101400.03
2022-09-03T20:28:54.855Z,101413.78
2022-09-03T20:31:28.887Z,101409.47
2022-09-03T20:34:32.742Z,101409.00
2022-09-03T20:37:25.681Z,101416.81
2022-09-03T20:40:21.752Z,101411.69
2022-09-03T20:43:13.556Z,101417.41
2022-09-03T20:45:53.208Z,101417.41
2022-09-03T20:48:43.172Z,101421.41
2022-09-03T20:51:22.712Z,101418.03
2022-09-03T20:54:02.065Z,101425.22
2022-09-03T20:56:47.915Z,101424.53
2022-09-03T20:59:51.368Z,101422.09
2022-09-03T21:02:46.339Z,101427.66
2022-09-03T21:05:26.822Z,101432.63
2022-09-03T21:08:11.654Z,101435.88
2022-09-03T21:11:02.800Z,101441.75
2022-09-03T21:13:56.342Z,101433.13
2022-09-03T21:16:41.027Z,101439.97
2022-09-03T21:19:28.527Z,101438.97
2022-09-03T21:22:04.084Z,101438.31
2022-09-03T21:24:37.464Z,101441.16
2022-09-03T21:27:09.764Z,101440.69
2022-09-03T21:29:58.384Z,101442.72
2022-09-03T21:32:47.164Z,101437.22
2022-09-03T21:35:38.602Z,101447.84
2022-09-03T21:38:18.468Z,101451.41
2022-09-03T21:41:17.059Z,101448.91
2022-09-03T21:43:52.378Z,101458.47
2022-09-03T21:46:23.673Z,101452.03
2022-09-03T21:48:56.458Z,101455.25
2022-09-03T21:51:27.452Z,101450.94
2022-09-03T21:54:10.505Z,101447.41
2022-09-03T21:57:07.651Z,101452.03
2022-09-03T22:00:05.590Z,101456.78
2022-09-03T22:02:33.424Z,101451.44
2022-09-03T22:05:01.128Z,101455.25
2022-09-03T22:07:53.351Z,101453.38
2022-09-03T22:10:31.866Z,101456.28
2022-09-03T22:13:29.043Z,101457.78
2022-09-03T22:16:03.064Z,101461.31
2022-09-03T22:18:32.233Z,101464.75
2022-09-03T22:21:23.292Z,101466.25
2022-09-03T22:24:14.609Z,101466.03
2022-09-03T22:26:51.900Z,101471.25
2022-09-03T22:29:53.216Z,101475.88
2022-09-03T22:32:33.623Z,101476.06
2022-09-03T22:35:29.296Z,101473.56
2022-09-03T22:38:11.514Z,101478.78
2022-09-03T22:40:52.406Z,101481.50
2022-09-03T22:43:35.097Z,101484.31
2022-09-03T22:46:15.398Z,101490.72
2022-09-03T22:48:56.995Z,101490.41
2022-09-03T22:51:24.028Z,101482.34
2022-09-03T22:53:59.132Z,101482.16
2022-09-03T22:56:27.588Z,101491.25
2022-09-03T22:59:02.781Z,101484.06
2022-09-03T23:01:36.444Z,101491.25
2022-09-03T23:04:12.987Z,101489.97
2022-09-03T23:06:50.892Z,101487.75
2022-09-03T23:09:24.746Z,101493.69
2022-09-03T23:12:00.632Z,101498.78
2022-09-03T23:14:51.207Z,101501.50
2022-09-03T23:22:37.339Z,101503.88
2022-09-03T23:25:15.175Z,101508.84
2022-09-03T23:27:53.437Z,101508.94
2022-09-03T23:30:19.869Z,101510.91
2022-09-03T23:32:48.755Z,101516.47
2022-09-03T23:35:17.697Z,101512.53
2022-09-03T23:38:02.318Z,101508.56
2022-09-03T23:40:38.192Z,101518.78
2022-09-03T23:43:33.890Z,101513.09
2022-09-03T23:46:15.828Z,101520.38
2022-09-03T23:48:51.178Z,101517.41
2022-09-03T23:52:05.513Z,101523.91
2022-09-03T23:54:46.934Z,101520.63
2022-09-03T23:57:41.888Z,101509.81
